シンガポール/チャンギ の空港の天気 - METARとTAF

シンガポール・チャンギ国際空港 ( WSSS / SIN ) - シンガポール Changi
飛行場実況気象(Metar)
観測時間06/26 19:30 SGT (06/26 11:30 UTC)
風向・風速東南東 5m/s
視程10km以上
天気現象
少しの雲 雲底高度 550m
全天の8割程度の雲 雲底高度 9140m
気温28℃
湿度84%
気圧1009hPa
METARWSSS 261130Z 12009KT 9999 FEW018 BKN300 28/25 Q1009 NOSIG
過去の天気等 Google飛行場航空写真 Wunderground天気予報

過去48時間のMETAR

飛行場予報(TAF)
データがありません